Time;durP1;ratioP1;P1;durP2;ratioP2;P2;SDS_P1;SDS_P2;PMS_P1;PMS_P2;Temp;Humidity;BMP_temperature;BMP_pressure;BME280_temperature;BME280_humidity;BME280_pressure;Samples;Min_cycle;Max_cycle;Signal;HPM_P1;HPM_P2
2022/12/25 07:58:57;;;;;;;3.23;2.70;;;6.90;99.90;;;;;;5136029;27;20769;-81
2022/12/25 08:01:25;;;;;;;2.73;2.47;;;6.90;99.90;;;;;;5134601;28;20252;-81
2022/12/25 08:03:56;;;;;;;4.30;2.83;;;7.00;99.90;;;;;;5133963;28;20177;-81
2022/12/25 08:06:28;;;;;;;5.77;3.00;;;7.10;99.90;;;;;;5134130;28;20180;-81
2022/12/25 08:08:54;;;;;;;2.87;2.53;;;7.20;99.90;;;;;;5134655;27;20197;-81
2022/12/25 08:11:20;;;;;;;1.87;1.60;;;7.30;99.90;;;;;;5133134;27;20631;-81
2022/12/25 08:13:45;;;;;;;8.60;5.17;;;7.40;99.90;;;;;;5132540;27;20184;-82
2022/12/25 08:16:11;;;;;;;7.27;5.43;;;7.50;99.90;;;;;;5133020;28;20630;-81
2022/12/25 08:18:38;;;;;;;27.50;16.47;;;7.60;99.90;;;;;;5137876;28;20209;-81
2022/12/25 08:21:12;;;;;;;18.20;11.07;;;7.80;99.90;;;;;;5138391;28;20185;-82
2022/12/25 08:23:41;;;;;;;13.27;9.00;;;7.90;99.90;;;;;;5139531;28;20269;-82
2022/12/25 08:26:09;;;;;;;3.73;3.40;;;8.10;99.90;;;;;;5139150;28;20621;-82
2022/12/25 08:28:35;;;;;;;4.90;3.90;;;8.40;99.90;;;;;;5139685;28;20303;-82
2022/12/25 08:31:06;;;;;;;2.73;1.97;;;8.60;99.90;;;;;;5139283;28;20667;-82
2022/12/25 08:33:32;;;;;;;2.97;1.10;;;8.80;99.90;;;;;;5138251;28;20229;-82
2022/12/25 08:36:03;;;;;;;4.37;1.63;;;9.00;99.90;;;;;;5138382;28;20182;-82
2022/12/25 08:38:28;;;;;;;2.70;1.57;;;9.20;99.90;;;;;;5138155;28;20241;-82
2022/12/25 08:40:54;;;;;;;1.93;1.70;;;9.40;99.90;;;;;;5138896;28;20656;-82
2022/12/25 08:43:19;;;;;;;3.00;1.80;;;9.40;99.90;;;;;;5139028;28;20206;-82
2022/12/25 08:45:46;;;;;;;2.33;1.73;;;9.10;99.90;;;;;;5140603;27;20169;-82
2022/12/25 08:48:12;;;;;;;2.43;1.90;;;8.90;99.90;;;;;;5139501;28;20241;-82
2022/12/25 08:50:38;;;;;;;2.37;1.80;;;8.80;99.90;;;;;;5140734;27;20181;-82
2022/12/25 08:53:03;;;;;;;3.23;2.47;;;8.60;99.90;;;;;;5138573;28;20265;-82
2022/12/25 08:55:29;;;;;;;3.77;2.43;;;8.50;99.90;;;;;;5140591;27;20171;-82
2022/12/25 08:57:55;;;;;;;4.13;2.87;;;8.50;99.90;;;;;;5140560;27;20265;-82
2022/12/25 09:00:20;;;;;;;2.83;2.20;;;8.40;99.90;;;;;;5138422;28;20186;-82
2022/12/25 09:02:46;;;;;;;1.60;1.50;;;8.50;99.90;;;;;;5139129;28;20175;-82
2022/12/25 09:05:12;;;;;;;2.10;1.30;;;9.10;99.90;;;;;;5138862;28;20179;-81
2022/12/25 09:07:37;;;;;;;1.43;1.20;;;9.40;99.90;;;;;;5138908;28;20201;-81
2022/12/25 09:10:03;;;;;;;1.90;1.30;;;9.70;99.90;;;;;;5125844;28;20282;-82
2022/12/25 09:12:29;;;;;;;1.97;1.27;;;10.00;99.90;;;;;;5124629;28;20183;-82
2022/12/25 09:14:54;;;;;;;1.87;1.50;;;10.10;99.90;;;;;;5125699;28;20633;-82
2022/12/25 09:17:20;;;;;;;1.60;1.17;;;10.20;99.90;;;;;;5125376;28;20214;-81
2022/12/25 09:19:46;;;;;;;2.50;1.40;;;10.30;99.90;;;;;;5125770;28;20176;-82
2022/12/25 09:22:11;;;;;;;2.63;1.50;;;10.40;99.90;;;;;;5124849;28;20171;-83
2022/12/25 09:24:38;;;;;;;1.27;1.13;;;10.70;99.90;;;;;;5125440;28;20206;-82
2022/12/25 09:27:03;;;;;;;2.63;1.43;;;11.00;99.90;;;;;;5124666;28;20202;-82
2022/12/25 09:29:29;;;;;;;3.67;1.50;;;10.80;99.90;;;;;;5124684;28;20186;-83
2022/12/25 09:31:55;;;;;;;1.60;1.33;;;10.60;99.90;;;;;;5124357;28;20180;-84
2022/12/25 09:34:20;;;;;;;1.80;1.50;;;10.70;99.90;;;;;;5125391;28;20183;-83
2022/12/25 09:36:46;;;;;;;16.30;12.37;;;11.00;99.90;;;;;;5125921;28;20175;-83
2022/12/25 09:39:11;;;;;;;19.10;13.73;;;11.40;99.90;;;;;;5125963;28;20195;-83
2022/12/25 09:41:58;;;;;;;3.80;3.23;;;11.60;99.90;;;;;;5125127;28;20180;-83
2022/12/25 09:44:28;;;;;;;2.97;2.67;;;11.70;99.90;;;;;;5125934;28;20176;-83
2022/12/25 09:47:25;;;;;;;2.23;2.03;;;11.70;99.90;;;;;;5126612;28;20576;-83
2022/12/25 09:50:16;;;;;;;1.80;1.70;;;12.00;99.90;;;;;;5124756;28;20178;-83
2022/12/25 09:53:13;;;;;;;1.70;1.60;;;12.20;99.90;;;;;;5124605;28;20178;-83
2022/12/25 09:55:56;;;;;;;1.80;1.70;;;12.40;99.90;;;;;;5126134;28;20168;-83
2022/12/25 09:58:22;;;;;;;2.37;1.80;;;12.40;99.90;;;;;;5126693;28;20222;-83
2022/12/25 10:00:54;;;;;;;1.87;1.67;;;12.60;99.90;;;;;;5126932;28;20639;-83
2022/12/25 10:03:38;;;;;;;2.40;1.80;;;12.50;99.90;;;;;;5125482;28;20171;-82
2022/12/25 10:06:21;;;;;;;2.13;1.90;;;12.60;99.90;;;;;;5125136;28;20521;-82
2022/12/25 10:09:11;;;;;;;2.50;2.13;;;12.80;99.90;;;;;;5124658;28;20206;-82
2022/12/25 10:11:54;;;;;;;5.13;3.10;;;13.00;99.90;;;;;;5126414;28;20164;-82
2022/12/25 10:14:44;;;;;;;2.40;1.83;;;13.40;99.90;;;;;;5127373;28;20176;-82
2022/12/25 10:17:47;;;;;;;5.47;3.13;;;13.40;99.90;;;;;;5125880;28;20185;-83
2022/12/25 10:20:49;;;;;;;4.43;2.80;;;13.20;99.90;;;;;;5072555;28;20190;-84
2022/12/25 10:23:21;;;;;;;2.13;1.80;;;13.30;99.90;;;;;;5124421;28;20175;-82
2022/12/25 10:25:47;;;;;;;1.90;1.70;;;13.00;99.90;;;;;;5124809;28;20172;-83
2022/12/25 10:28:33;;;;;;;1.67;1.57;;;13.10;99.90;;;;;;5124606;28;20218;-83
2022/12/25 10:31:18;;;;;;;2.37;1.87;;;13.20;99.90;;;;;;5123365;28;20246;-82
2022/12/25 10:33:44;;;;;;;1.53;1.30;;;13.50;99.90;;;;;;5119917;28;20175;-82
2022/12/25 10:36:09;;;;;;;3.50;1.70;;;13.60;99.90;;;;;;5121642;28;20167;-84
2022/12/25 10:38:35;;;;;;;1.50;1.40;;;13.70;99.90;;;;;;5122513;28;20214;-83
2022/12/25 10:41:22;;;;;;;1.73;1.50;;;13.40;99.90;;;;;;5118709;28;20179;-82
2022/12/25 10:43:53;;;;;;;1.10;1.00;;;13.60;99.90;;;;;;5118539;28;20174;-82
2022/12/25 10:46:20;;;;;;;1.30;1.00;;;13.80;99.90;;;;;;5117267;28;20259;-83
2022/12/25 10:48:58;;;;;;;1.80;1.17;;;13.80;99.90;;;;;;5116920;28;20201;-82
2022/12/25 10:51:28;;;;;;;1.20;1.10;;;14.00;99.90;;;;;;5116381;28;20209;-82
2022/12/25 10:53:54;;;;;;;1.33;1.20;;;14.00;99.90;;;;;;5114975;28;20604;-83
2022/12/25 10:56:20;;;;;;;2.97;1.27;;;13.90;99.90;;;;;;5115209;28;20207;-83
2022/12/25 10:58:46;;;;;;;1.30;1.20;;;13.70;99.90;;;;;;5118926;28;20213;-83
2022/12/25 11:01:12;;;;;;;1.60;1.50;;;13.60;99.90;;;;;;5123866;28;20174;-83
2022/12/25 11:03:40;;;;;;;1.43;1.20;;;13.50;99.90;;;;;;5124986;28;20196;-83
2022/12/25 11:06:19;;;;;;;3.17;1.47;;;13.50;99.90;;;;;;5124413;28;20177;-83
2022/12/25 11:08:54;;;;;;;2.00;1.77;;;13.50;99.90;;;;;;5116474;28;20717;-84
2022/12/25 11:11:20;;;;;;;2.57;2.03;;;13.40;99.90;;;;;;5117311;28;20217;-84
2022/12/25 11:14:04;;;;;;;1.67;1.53;;;13.40;99.90;;;;;;5120277;28;20192;-84
2022/12/25 11:16:38;;;;;;;1.93;1.50;;;13.60;99.90;;;;;;5102212;28;20585;-85
2022/12/25 11:19:30;;;;;;;1.93;1.60;;;14.10;99.90;;;;;;5108302;28;20216;-85
2022/12/25 11:21:58;;;;;;;2.33;1.63;;;14.60;99.90;;;;;;5105638;28;20166;-88
2022/12/25 11:24:27;;;;;;;1.57;1.30;;;14.90;99.90;;;;;;5104323;28;20273;-83
2022/12/25 11:27:01;;;;;;;1.40;1.30;;;15.40;99.90;;;;;;5104728;28;20184;-84
2022/12/25 11:29:39;;;;;;;1.70;1.40;;;15.20;99.90;;;;;;5105222;28;20174;-83
2022/12/25 11:32:17;;;;;;;1.50;1.30;;;15.20;99.90;;;;;;5103755;28;20708;-83
2022/12/25 11:34:45;;;;;;;1.33;1.23;;;15.30;99.90;;;;;;5127825;27;20175;-83
2022/12/25 11:37:32;;;;;;;1.27;1.17;;;15.50;99.90;;;;;;5124578;28;20200;-85
2022/12/25 11:39:59;;;;;;;1.30;1.20;;;15.90;99.90;;;;;;5113089;28;20645;-86
2022/12/25 11:42:33;;;;;;;1.27;1.17;;;15.80;99.90;;;;;;5102857;28;20180;-85
2022/12/25 11:45:17;;;;;;;1.53;1.27;;;16.10;99.90;;;;;;5103438;28;20275;-88
2022/12/25 11:47:51;;;;;;;1.80;1.20;;;16.60;99.90;;;;;;5121643;28;20199;-83
2022/12/25 11:50:41;;;;;;;1.57;0.93;;;17.10;99.90;;;;;;5122542;28;20183;-84
2022/12/25 11:53:19;;;;;;;3.53;1.60;;;17.10;99.90;;;;;;5104406;28;20221;-84
2022/12/25 11:55:57;;;;;;;1.00;0.90;;;17.60;99.90;;;;;;5117116;28;20183;-86
2022/12/25 11:58:38;;;;;;;2.10;1.30;;;17.50;99.90;;;;;;5117749;28;20290;-87
2022/12/25 12:01:20;;;;;;;1.97;1.13;;;17.20;99.90;;;;;;5120861;28;20178;-86
2022/12/25 12:03:46;;;;;;;1.30;1.20;;;16.90;99.90;;;;;;5120646;28;20233;-88
2022/12/25 12:06:34;;;;;;;1.30;1.20;;;16.90;99.90;;;;;;5120879;28;20168;-87
2022/12/25 12:09:25;;;;;;;1.23;1.13;;;16.80;99.90;;;;;;5117280;28;20255;-86
2022/12/25 12:12:14;;;;;;;1.40;1.30;;;16.50;99.90;;;;;;5101401;28;20544;-85
2022/12/25 12:14:58;;;;;;;1.90;1.40;;;16.30;99.90;;;;;;5092638;28;20192;-86
2022/12/25 12:17:24;;;;;;;1.10;0.97;;;16.00;99.90;;;;;;5099332;28;20280;-85
2022/12/25 12:19:53;;;;;;;1.17;1.00;;;15.90;99.90;;;;;;5101978;28;20244;-83
2022/12/25 12:22:23;;;;;;;4.17;0.90;;;15.70;99.90;;;;;;5096745;28;20266;-83
2022/12/25 12:25:00;;;;;;;1.37;1.00;;;15.50;99.90;;;;;;5119488;28;20220;-86
2022/12/25 12:27:38;;;;;;;1.37;1.10;;;15.10;99.90;;;;;;5121645;28;20199;-86
2022/12/25 12:30:06;;;;;;;1.30;1.00;;;14.80;99.90;;;;;;5104488;28;20188;-84
2022/12/25 12:32:42;;;;;;;1.87;1.30;;;14.70;99.90;;;;;;5101620;28;20205;-84
2022/12/25 12:35:22;;;;;;;1.33;1.10;;;14.60;99.90;;;;;;5100500;28;20179;-85
2022/12/25 12:38:02;;;;;;;1.30;1.10;;;14.50;99.90;;;;;;5100680;28;20216;-86
2022/12/25 12:40:38;;;;;;;2.73;1.00;;;14.50;99.90;;;;;;5099150;28;20227;-82
2022/12/25 12:43:21;;;;;;;1.77;1.13;;;14.40;99.90;;;;;;5099298;28;20322;-83
2022/12/25 12:45:54;;;;;;;2.50;1.37;;;14.30;99.90;;;;;;5120398;28;20173;-84
2022/12/25 12:48:25;;;;;;;2.30;1.40;;;14.30;99.90;;;;;;5103137;28;20339;-84
2022/12/25 12:51:04;;;;;;;4.77;2.00;;;14.30;99.90;;;;;;5105437;28;20743;-85
2022/12/25 12:53:32;;;;;;;1.53;1.10;;;14.30;99.90;;;;;;5113615;28;20517;-86
2022/12/25 12:56:19;;;;;;;1.57;1.10;;;14.30;99.90;;;;;;5108337;28;20215;-85
2022/12/25 12:58:49;;;;;;;2.33;1.50;;;14.10;99.90;;;;;;5119993;28;20215;-85
2022/12/25 13:01:21;;;;;;;1.50;1.20;;;13.80;99.90;;;;;;5115695;28;20515;-86
2022/12/25 13:04:22;;;;;;;2.00;1.13;;;13.90;99.90;;;;;;5124293;28;20616;-83
2022/12/25 13:06:53;;;;;;;2.83;1.63;;;13.90;99.90;;;;;;5104770;28;22012;-81
2022/12/25 13:09:34;;;;;;;2.10;1.37;;;13.90;99.90;;;;;;5127574;27;20679;-83
2022/12/25 13:12:05;;;;;;;1.10;0.90;;;13.90;99.90;;;;;;5120297;28;20223;-82
2022/12/25 13:14:31;;;;;;;3.17;1.53;;;13.90;99.90;;;;;;5119480;28;20274;-82
2022/12/25 13:16:58;;;;;;;2.13;1.20;;;13.80;99.90;;;;;;5122537;28;20624;-85
2022/12/25 13:19:26;;;;;;;4.73;1.17;;;13.90;99.90;;;;;;5120293;28;20287;-85
2022/12/25 13:22:01;;;;;;;1.97;1.50;;;13.70;99.90;;;;;;5117924;28;20210;-83
2022/12/25 13:24:29;;;;;;;2.80;1.60;;;13.70;99.90;;;;;;5111043;28;20633;-82
2022/12/25 13:26:55;;;;;;;3.17;1.17;;;13.70;99.90;;;;;;5099830;28;20176;-84
2022/12/25 13:29:38;;;;;;;2.30;1.30;;;13.70;99.90;;;;;;5099642;28;20577;-84
2022/12/25 13:32:13;;;;;;;1.30;1.20;;;13.60;99.90;;;;;;5099885;28;20191;-85
2022/12/25 13:34:41;;;;;;;1.47;1.13;;;13.60;99.90;;;;;;5098592;28;20225;-84
2022/12/25 13:37:09;;;;;;;1.70;1.20;;;13.50;99.90;;;;;;5098695;28;20269;-84
2022/12/25 13:39:38;;;;;;;2.80;1.10;;;13.50;99.90;;;;;;5104981;28;20191;-84
2022/12/25 13:42:05;;;;;;;1.10;1.00;;;13.50;99.90;;;;;;5097905;28;20172;-84
2022/12/25 13:44:53;;;;;;;1.10;0.90;;;13.50;99.90;;;;;;5096044;28;20175;-84
2022/12/25 13:47:29;;;;;;;1.47;1.17;;;13.40;99.90;;;;;;5096905;28;20184;-84
2022/12/25 13:49:56;;;;;;;1.20;1.00;;;13.40;99.90;;;;;;5096390;28;20192;-84
2022/12/25 13:52:36;;;;;;;1.50;1.10;;;13.40;99.90;;;;;;5101916;28;20240;-84
2022/12/25 13:55:32;;;;;;;1.87;1.57;;;13.20;99.90;;;;;;5104827;28;20168;-84
2022/12/25 13:58:00;;;;;;;1.73;1.30;;;13.20;99.90;;;;;;5115127;28;20219;-85
2022/12/25 14:00:35;;;;;;;3.43;1.33;;;13.10;99.90;;;;;;5115158;28;20184;-84
2022/12/25 14:03:03;;;;;;;2.57;1.40;;;13.10;99.90;;;;;;5102124;28;20578;-82
2022/12/25 14:05:31;;;;;;;2.03;1.70;;;13.00;99.90;;;;;;5102770;28;20263;-83
2022/12/25 14:07:59;;;;;;;1.47;1.20;;;12.90;99.90;;;;;;5104120;28;20265;-84
2022/12/25 14:10:28;;;;;;;2.77;1.40;;;12.90;99.90;;;;;;5104280;28;20211;-84
2022/12/25 14:12:58;;;;;;;1.73;1.50;;;12.90;99.90;;;;;;5105834;28;20180;-82
2022/12/25 14:15:27;;;;;;;2.40;1.70;;;12.90;99.90;;;;;;5101828;28;20185;-85
2022/12/25 14:17:52;;;;;;;1.97;1.57;;;12.90;99.90;;;;;;5105622;28;20219;-85
2022/12/25 14:20:26;;;;;;;2.53;1.50;;;12.80;99.90;;;;;;5105561;28;20188;-84
2022/12/25 14:22:54;;;;;;;2.30;1.60;;;12.70;99.90;;;;;;5111082;28;20172;-85
2022/12/25 14:25:26;;;;;;;2.17;1.87;;;12.70;99.90;;;;;;5111338;28;20592;-84
2022/12/25 14:27:52;;;;;;;2.63;2.10;;;12.60;99.90;;;;;;5101793;28;20291;-84
2022/12/25 14:30:18;;;;;;;3.83;2.20;;;12.60;99.90;;;;;;5101548;28;20200;-84
2022/12/25 14:32:49;;;;;;;3.27;2.30;;;12.50;99.90;;;;;;5085549;28;20184;-84
2022/12/25 14:35:16;;;;;;;1.83;1.40;;;12.50;99.90;;;;;;5103327;28;20251;-84
2022/12/25 14:37:42;;;;;;;2.27;1.73;;;12.50;99.90;;;;;;5101427;28;20215;-85
2022/12/25 14:40:25;;;;;;;2.20;1.27;;;12.50;99.90;;;;;;5101042;28;20180;-85
2022/12/25 14:43:03;;;;;;;2.27;1.50;;;12.40;99.90;;;;;;5103769;28;20168;-85
2022/12/25 14:45:33;;;;;;;2.93;1.70;;;12.30;99.90;;;;;;5101748;28;20184;-82
2022/12/25 14:48:03;;;;;;;2.23;1.70;;;12.30;99.90;;;;;;5102310;28;20210;-84
2022/12/25 14:50:38;;;;;;;2.57;2.00;;;12.20;99.90;;;;;;5103364;28;20180;-85
2022/12/25 14:53:15;;;;;;;2.20;1.60;;;12.10;99.90;;;;;;5117669;28;20175;-84
2022/12/25 14:55:46;;;;;;;2.77;1.60;;;12.00;99.90;;;;;;5122572;28;20176;-82
2022/12/25 14:58:24;;;;;;;3.20;2.30;;;12.00;99.90;;;;;;5120530;28;20211;-83
2022/12/25 15:00:56;;;;;;;3.33;2.00;;;12.00;99.90;;;;;;5123032;28;20171;-83
2022/12/25 15:03:37;;;;;;;4.23;2.27;;;12.00;99.90;;;;;;5121118;28;20175;-84
2022/12/25 15:06:17;;;;;;;2.00;1.60;;;11.90;99.90;;;;;;5119371;28;20167;-82
2022/12/25 15:08:55;;;;;;;3.40;2.40;;;11.80;99.90;;;;;;5118402;28;20695;-82
2022/12/25 15:11:20;;;;;;;2.63;2.10;;;11.70;99.90;;;;;;5120081;28;20167;-84
2022/12/25 15:13:46;;;;;;;5.50;3.43;;;11.70;99.90;;;;;;5120978;28;20175;-84
2022/12/25 15:16:17;;;;;;;4.27;2.50;;;11.60;99.90;;;;;;5120213;28;20178;-83
2022/12/25 15:18:45;;;;;;;3.57;2.80;;;11.50;99.90;;;;;;5122056;28;20218;-84
2022/12/25 15:21:25;;;;;;;3.37;2.70;;;11.40;99.90;;;;;;5121001;28;20172;-83
2022/12/25 15:23:55;;;;;;;3.17;2.63;;;11.40;99.90;;;;;;5121344;28;20684;-83
2022/12/25 15:26:22;;;;;;;2.70;2.43;;;11.30;99.90;;;;;;5120326;28;20524;-83
2022/12/25 15:28:48;;;;;;;3.57;2.43;;;11.20;99.90;;;;;;5122649;28;20660;-83
2022/12/25 15:31:19;;;;;;;3.93;3.07;;;11.20;99.90;;;;;;5121960;27;20179;-83
2022/12/25 15:33:45;;;;;;;3.37;2.60;;;11.10;99.90;;;;;;5120823;28;20551;-83
2022/12/25 15:36:11;;;;;;;3.80;2.63;;;11.00;99.90;;;;;;5121327;28;20283;-83
2022/12/25 15:38:37;;;;;;;5.10;4.10;;;11.00;99.90;;;;;;5121827;28;20230;-83
2022/12/25 15:41:08;;;;;;;6.10;3.83;;;10.90;99.90;;;;;;5120078;28;20181;-83
2022/12/25 15:43:33;;;;;;;3.10;2.50;;;10.80;99.90;;;;;;5119686;28;20175;-83
2022/12/25 15:45:59;;;;;;;2.93;2.40;;;10.70;99.90;;;;;;5122690;28;20168;-83
2022/12/25 15:48:25;;;;;;;3.40;2.57;;;10.70;99.90;;;;;;5121247;28;20282;-83
2022/12/25 15:50:50;;;;;;;2.83;2.23;;;10.60;99.90;;;;;;5123052;28;20171;-83
2022/12/25 15:53:16;;;;;;;4.37;2.60;;;10.50;99.90;;;;;;5121361;28;20179;-83
2022/12/25 15:55:42;;;;;;;13.33;6.33;;;10.50;99.90;;;;;;5122115;28;20266;-83
2022/12/25 15:58:11;;;;;;;4.10;2.97;;;10.40;99.90;;;;;;5121638;28;20213;-83
2022/12/25 16:00:37;;;;;;;11.03;7.73;;;10.40;99.90;;;;;;5123226;28;20254;-82
2022/12/25 16:03:02;;;;;;;17.03;12.23;;;10.40;99.90;;;;;;5120813;28;20585;-83
2022/12/25 16:05:28;;;;;;;16.40;10.20;;;10.30;99.90;;;;;;5122066;28;20277;-83
2022/12/25 16:07:54;;;;;;;70.10;37.13;;;10.30;99.90;;;;;;5121660;28;20281;-83
2022/12/25 16:10:21;;;;;;;8.90;6.90;;;10.20;99.90;;;;;;5120489;28;20190;-83
2022/12/25 16:12:47;;;;;;;3.73;2.97;;;10.20;99.90;;;;;;5117672;28;20184;-83
2022/12/25 16:15:14;;;;;;;5.60;4.37;;;10.10;99.90;;;;;;5118065;28;20207;-83
2022/12/25 16:17:40;;;;;;;5.10;3.83;;;10.10;99.90;;;;;;5118263;28;20248;-82
2022/12/25 16:20:06;;;;;;;4.17;2.40;;;10.00;99.90;;;;;;5120096;28;20185;-83
2022/12/25 16:22:38;;;;;;;3.80;2.77;;;10.00;99.90;;;;;;5120451;28;20260;-84
2022/12/25 16:25:15;;;;;;;3.20;2.70;;;10.00;99.90;;;;;;5119995;28;20192;-84
2022/12/25 16:27:41;;;;;;;3.43;2.17;;;10.00;99.90;;;;;;5120791;28;20195;-84
2022/12/25 16:30:08;;;;;;;5.53;2.67;;;9.90;99.90;;;;;;5119540;28;20179;-82
2022/12/25 16:32:34;;;;;;;4.83;3.10;;;9.80;99.90;;;;;;5120358;27;20172;-82
2022/12/25 16:35:00;;;;;;;5.43;3.60;;;9.80;99.90;;;;;;5119411;28;20188;-82
2022/12/25 16:37:26;;;;;;;4.57;3.63;;;9.80;99.90;;;;;;5115248;28;20220;-83
2022/12/25 16:39:52;;;;;;;3.83;3.30;;;9.70;99.90;;;;;;5099445;28;20638;-84
2022/12/25 16:42:17;;;;;;;3.93;2.93;;;9.60;99.90;;;;;;5100440;28;20189;-82
2022/12/25 16:44:43;;;;;;;3.93;2.70;;;9.60;99.90;;;;;;5106375;28;20261;-84
2022/12/25 16:47:09;;;;;;;3.37;2.30;;;9.60;99.90;;;;;;5106791;28;20602;-83
2022/12/25 16:49:34;;;;;;;3.63;2.53;;;9.60;99.90;;;;;;5106143;28;20178;-84
2022/12/25 16:52:01;;;;;;;3.77;3.00;;;9.50;99.90;;;;;;5110416;28;20582;-84
2022/12/25 16:54:27;;;;;;;4.47;3.10;;;9.50;99.90;;;;;;5122182;28;20181;-80
2022/12/25 16:56:52;;;;;;;4.13;3.07;;;9.50;99.90;;;;;;5128410;28;20213;-84
2022/12/25 16:59:18;;;;;;;5.53;3.63;;;9.40;99.90;;;;;;5131729;27;20270;-83
2022/12/25 17:01:44;;;;;;;5.23;3.50;;;9.40;99.90;;;;;;5134426;27;20181;-82
2022/12/25 17:04:10;;;;;;;3.40;2.63;;;9.30;99.90;;;;;;5101577;28;20584;-83
2022/12/25 17:06:36;;;;;;;3.27;2.30;;;9.30;99.90;;;;;;5112966;28;20634;-81
2022/12/25 17:09:02;;;;;;;4.10;2.60;;;9.20;99.90;;;;;;5103699;28;20208;-82
2022/12/25 17:11:28;;;;;;;4.50;3.03;;;9.20;99.90;;;;;;5100111;28;20550;-82
2022/12/25 17:14:00;;;;;;;4.23;2.63;;;9.10;99.90;;;;;;5100303;28;20655;-81
2022/12/25 17:16:28;;;;;;;4.10;2.60;;;9.00;99.90;;;;;;5100829;28;20190;-85
2022/12/25 17:19:09;;;;;;;4.57;3.17;;;8.90;99.90;;;;;;5103517;28;20266;-85
2022/12/25 17:21:36;;;;;;;4.63;3.10;;;8.80;99.90;;;;;;5107151;28;20177;-85
2022/12/25 17:24:03;;;;;;;5.53;3.50;;;8.80;99.90;;;;;;5105875;28;20192;-84
2022/12/25 17:26:30;;;;;;;4.43;3.23;;;8.70;99.90;;;;;;5106385;28;20279;-84
2022/12/25 17:28:57;;;;;;;4.23;3.63;;;8.60;99.90;;;;;;5118152;28;20216;-84
2022/12/25 17:31:22;;;;;;;5.77;3.80;;;8.50;99.90;;;;;;5127070;28;20172;-84
2022/12/25 17:33:48;;;;;;;5.00;3.60;;;8.50;99.90;;;;;;5122616;27;20288;-83
2022/12/25 17:36:17;;;;;;;4.53;3.40;;;8.40;99.90;;;;;;5104742;27;20192;-83
2022/12/25 17:38:43;;;;;;;5.87;4.40;;;8.40;99.90;;;;;;5116912;28;20208;-83
2022/12/25 17:41:11;;;;;;;6.47;4.63;;;8.40;99.90;;;;;;5116584;28;20180;-82
2022/12/25 17:43:40;;;;;;;7.87;5.73;;;8.30;99.90;;;;;;5111443;28;20219;-82
2022/12/25 17:46:16;;;;;;;7.30;5.40;;;8.30;99.90;;;;;;5120771;28;20243;-82
2022/12/25 17:48:42;;;;;;;9.57;6.20;;;8.20;99.90;;;;;;5117934;28;20216;-82
2022/12/25 17:51:11;;;;;;;6.57;4.83;;;8.20;99.90;;;;;;5096734;28;20176;-82
2022/12/25 17:53:38;;;;;;;7.20;5.20;;;8.10;99.90;;;;;;5100714;28;20181;-84
2022/12/25 17:56:05;;;;;;;8.37;5.63;;;8.00;99.90;;;;;;5098320;28;20219;-85
2022/12/25 17:58:31;;;;;;;7.40;5.67;;;8.00;99.90;;;;;;5105839;28;20223;-85
2022/12/25 18:00:56;;;;;;;10.33;6.60;;;7.90;99.90;;;;;;5121592;28;20177;-82
2022/12/25 18:03:22;;;;;;;8.67;6.20;;;7.90;99.90;;;;;;5119932;28;20180;-82
2022/12/25 18:05:48;;;;;;;10.20;6.60;;;7.90;99.90;;;;;;5118487;28;20180;-82
2022/12/25 18:08:14;;;;;;;11.07;7.13;;;7.80;99.90;;;;;;5120740;28;20241;-82
2022/12/25 18:10:42;;;;;;;9.13;6.63;;;7.80;99.90;;;;;;5108536;28;20238;-82
2022/12/25 18:13:09;;;;;;;9.30;5.73;;;7.70;99.90;;;;;;5100910;28;20185;-83
2022/12/25 18:15:41;;;;;;;12.20;7.03;;;7.70;99.90;;;;;;5100570;28;20268;-83
2022/12/25 18:18:07;;;;;;;9.33;6.80;;;7.70;99.90;;;;;;5098272;28;20220;-83
2022/12/25 18:20:34;;;;;;;11.93;6.60;;;7.70;99.90;;;;;;5098356;28;20182;-85
